Tiempo atmosférico en la estación meteorológica de Alpandeire, Málaga (680 m.)



Fecha
DESCASC
Temp. máxima en grados centígrados (hora)
DESCASC
Temp. mínima en grados centígrados (hora)
DESCASC
Temp. media en grados centígrados
DESCASC
Racha de viento máxima en m/sg (hora)
DESCASC
Velocidad máxima media en intervalos de 10 minutos(hora)
DESCASC
Precipitaciones diarias en mm
DESCASC
Precipitaciones de 00:00 a 06:00 en mm
DESCASC
Precipitaciones de 06:00 a 12:00 en mm
DESCASC
Precipitaciones de 12:00 a 18:00 en mm
DESCASC
Precipitaciones de 18:00 a 24:00 en mm
DESCASC
18-08-2019 35.5 (14:40) 21.5 (08:50) 28.5 7.22 (15:00) 4.17 (19:20) 0 0 0 0 0
17-08-2019 36.6 (16:10) 21.8 (06:50) 29.2 7.5 (12:00) 4.17 (14:30) 0 0 0 0 0
16-08-2019 35.4 (16:50) 21.5 (07:20) 28.5 7.78 (15:00) 4.17 (15:20) 0 0 0 0 0
15-08-2019 34.4 (18:30) 20.4 (00:00) 27.4 6.67 (14:50) 3.61 (14:00) 0 0 0 0 0
14-08-2019 32.9 (17:30) 20.1 (00:00) 26.5 8.33 (12:40) 4.17 (12:40) 0 0 0 0 0
13-08-2019 31 (16:00) 19.3 (00:00) 25.1 7.22 (17:30) 3.61 (17:30) 0 0 0 0 0
12-08-2019 31.6 (17:20) 18 (00:00) 24.8 9.72 (20:00) 4.72 (20:30) 0 0 0 0 0
11-08-2019 32.2 (17:00) 21.5 (00:00) 26.9 10.83 (13:40) 5.56 (15:20) 0 0 0 0 0
10-08-2019 36.2 (17:30) 21.6 (00:00) 28.9 7.5 (15:50) 4.72 (12:40) 0 0 0 0 0
09-08-2019 36.1 (15:50) 20 (00:00) 28 9.17 (17:30) 4.17 (16:40) 0 0 0 0 0
08-08-2019 37.5 (16:30) 21 (00:00) 29.3 7.78 (17:10) 4.44 (16:40) 0 0 0 0 0
07-08-2019 36.3 (17:10) 21.5 (00:00) 28.9 9.17 (18:00) 5 (18:10) 0 0 0 0 0
06-08-2019 37.5 (17:40) 22 (00:00) 29.8 7.5 (16:20) 3.61 (18:30) 0 0 0 0 0
05-08-2019 35.7 (17:30) 22.7 (00:00) 29.2 7.78 (15:20) 4.72 (15:20) 0 0 0 0 0
04-08-2019 35.2 (16:50) 20.7 (00:00) 28 7.22 (15:00) 4.17 (17:50) 0 0 0 0 0
03-08-2019 33.4 (16:10) 20.5 (00:00) 27 6.67 (17:00) 3.61 (17:00) 0 0 0 0 0
02-08-2019 35.1 (17:00) 20.5 (00:00) 27.8 8.06 (17:10) 4.44 (17:10) 0 0 0 0 0
01-08-2019 31.7 (18:00) 20.6 (00:00) 26.2 7.78 (02:40) 3.61 (16:20) 0 0 0 0 0
31-07-2019 28.6 (18:00) 20.8 (00:00) 24.7 11.11 (13:50) 5.56 (14:20) 0 0 0 0 0
30-07-2019 35.2 (17:20) 20.1 (00:00) 27.7 10 (00:50) 4.17 (01:10) 0 0 0 0 0
29-07-2019 33.2 (17:50) 18.9 (00:00) 26.1 8.89 (19:20) 4.72 (16:20) 0 0 0 0 0
28-07-2019 30.7 (16:40) 15.2 (00:00) 23 6.67 (17:40) 3.89 (17:50) 0 0 0 0 0
27-07-2019 26.4 (13:50) 18.3 (00:00) 22.3 11.11 (18:20) 6.11 (18:20) 0 0 0 0 0
26-07-2019 29.8 (17:30) 18.6 (00:00) 24.2 9.17 (18:00) 5 (18:00) 0 0 0 0 0
25-07-2019 34.5 (17:20) 23.5 (00:00) 29 6.94 (14:50) 3.89 (08:00) 0 0 0 0 0
24-07-2019 33.7 (17:50) 20.3 (00:00) 27 7.78 (14:00) 4.44 (14:30) 0 0 0 0 0
23-07-2019 33.1 (19:30) 21.4 (00:00) 27.2 8.89 (14:00) 4.17 (14:40) 0 0 0 0 0
22-07-2019 30.9 (15:40) 19.8 (00:00) 25.3 8.33 (14:40) 5.28 (14:30) 0 0 0 0 0
21-07-2019 33 (16:00) 21.1 (00:00) 27.1 7.22 (23:30) 3.61 (23:00) 0 0 0 0 0

Gráficas

Temp. máximas Temp. mínimas Temp. medias Precipitaciones Rachas de viento máximas Velocidades máximas media en intervalos de 10 minutos

Datos horarios

Fecha y hora oficial Temperatura (ºC) Velocidad del viento (km/h) Dirección del viento Racha (km/h) Dirección de racha Precipitación (mm) Presión (hPa) Tendencia (hPa) Humedad (%)
2019-08-19 23:00:00 25.6 3 Noroeste 9 Sudeste 0 -- -- 44
2019-08-19 22:00:00 27.1 4 Sudeste 9 Este 0 -- -- 40
2019-08-19 21:00:00 29.6 6 Oeste 17 Sudoeste 0 -- -- 36
2019-08-19 20:00:00 32.5 10 Sudoeste 20 Oeste 0 -- -- 31
2019-08-19 19:00:00 33.8 12 Oeste 23 Oeste 0 -- -- 32
2019-08-19 18:00:00 34.7 10 Oeste 24 Oeste 0 -- -- 28
2019-08-19 17:00:00 34.1 14 Oeste 38 Oeste 0 -- -- 30
2019-08-19 16:00:00 35.7 9 Oeste 24 Oeste 0 -- -- 23
2019-08-19 15:00:00 35.1 14 Sudoeste 27 Sudoeste 0 -- -- 25
2019-08-19 14:00:00 34.1 10 Sudoeste 22 Sudoeste 0 -- -- 24
2019-08-19 13:00:00 31.8 8 Noroeste 18 Noroeste 0 -- -- 26
2019-08-19 12:00:00 30.5 9 Noroeste 17 Sudoeste 0 -- -- 31
2019-08-19 11:00:00 29.2 5 Sudoeste 10 Sudoeste 0 -- -- 36
2019-08-19 10:00:00 25.6 4 Sudeste 9 Este 0 -- -- 43
2019-08-19 09:00:00 21.6 3 Nordeste 8 Este 0 -- -- 51
2019-08-19 08:00:00 20.9 3 Este 8 Nordeste 0 -- -- 46
2019-08-19 07:00:00 21.2 3 Este 6 Este 0 -- -- 47
2019-08-19 06:00:00 22 0 Calma 8 Nordeste 0 -- -- 46
2019-08-19 05:00:00 22.4 3 Nordeste 6 Este 0 -- -- 44
2019-08-19 04:00:00 24.2 2 Sudoeste 32 Norte 0 -- -- 38
2019-08-19 03:00:00 24.4 6 Este 15 Noroeste 0 -- -- 41
2019-08-19 02:00:00 23.2 0 Calma 6 Sudeste 0 -- -- 46
2019-08-19 01:00:00 23.8 3 Nordeste 7 Este 0 -- -- 46
2019-08-19 00:00:00 24.2 2 Norte 6 Este 0 -- -- 46
2019-08-18 23:00:00 25.7 2 Norte 7 Sudeste 0 -- -- 43
2019-08-18 22:00:00 27.3 0 Calma 8 Oeste 0 -- -- 40
2019-08-18 21:00:00 29.8 3 Oeste 19 Oeste 0 -- -- 37
2019-08-18 20:00:00 32.4 9 Oeste 23 Oeste 0 -- -- 34
2019-08-18 19:00:00 34.2 11 Sudoeste 24 Oeste 0 -- -- 33
2019-08-18 18:00:00 35.2 9 Sudoeste 23 Oeste 0 -- -- 31
2019-08-18 17:00:00 35.4 11 Sudoeste 24 Oeste 0 -- -- 31
2019-08-18 16:00:00 35.1 13 Sudoeste 25 Sudoeste 0 -- -- 32
2019-08-18 15:00:00 35.4 14 Sudoeste 26 Sudoeste 0 -- -- 28
2019-08-18 14:00:00 34.8 10 Sudoeste 21 Sur 0 -- -- 25
2019-08-18 13:00:00 33.3 8 Oeste 17 Oeste 0 -- -- 26
2019-08-18 12:00:00 32 6 Oeste 12 Sudoeste 0 -- -- 28
2019-08-18 11:00:00 29.2 4 Oeste 7 Sudoeste 0 -- -- 33
2019-08-18 10:00:00 25.6 2 Sur 3 Sudoeste 0 -- -- 38
2019-08-18 09:00:00 21.7 0 Calma 2 Este 0 -- -- 45
2019-08-18 08:00:00 22.3 0 Calma 6 Oeste 0 -- -- 40
2019-08-18 07:00:00 23.3 2 Nordeste 9 Nordeste 0 -- -- 37
2019-08-18 06:00:00 23.9 5 Nordeste 8 Nordeste 0 -- -- 36
2019-08-18 05:00:00 24.7 6 Sudeste 11 Sudeste 0 -- -- 35
2019-08-18 04:00:00 24.2 2 Sudeste 9 Noroeste 0 -- -- 37
2019-08-18 03:00:00 23.8 2 Sudeste 5 Nordeste 0 -- -- 39
2019-08-18 02:00:00 23.7 0 Calma 5 Nordeste 0 -- -- 43
2019-08-18 01:00:00 24.4 0 Calma 6 Nordeste 0 -- -- 45
2019-08-18 00:00:00 24.9 2 Nordeste 5 Este 0 -- -- 45
2019-08-17 23:00:00 26 0 Calma 4 Este 0 -- -- 44
2019-08-17 22:00:00 27.7 2 Noroeste 5 Sudoeste 0 -- -- 40
2019-08-17 21:00:00 31 3 Oeste 8 Sur 0 -- -- 36
2019-08-17 20:00:00 35 5 Sur 15 Sudoeste 0 -- -- 30
2019-08-17 19:00:00 35.5 10 Sur 21 Sur 0 -- -- 27
2019-08-17 18:00:00 36.5 8 Sur 24 Sur 0 -- -- 27
2019-08-17 17:00:00 36.3 12 Sur 24 Sudoeste 0 -- -- 28
2019-08-17 16:00:00 36.3 9 Sur 22 Sudoeste 0 -- -- 26
2019-08-17 15:00:00 35.6 13 Sur 26 Sur 0 -- -- 27
2019-08-17 14:00:00 35.2 10 Sur 22 Sudoeste 0 -- -- 24
2019-08-17 13:00:00 34.1 8 Sudoeste 23 Sudoeste 0 -- -- 27
2019-08-17 12:00:00 33.4 8 Sudeste 27 Este 0 -- -- 25
2019-08-17 11:00:00 30.3 4 Noroeste 9 Sudoeste 0 -- -- 29
2019-08-17 10:00:00 27.7 2 Sur 4 Este 0 -- -- 33
2019-08-17 09:00:00 22.9 2 Este 5 Este 0 -- -- 38
2019-08-17 08:00:00 22 0 Calma 8 Este 0 -- -- 37
2019-08-17 07:00:00 21.8 3 Este 5 Este 0 -- -- 39
2019-08-17 06:00:00 22.1 2 Nordeste 6 Este 0 -- -- 40
2019-08-17 05:00:00 22.4 5 Este 9 Este 0 -- -- 39
2019-08-17 04:00:00 22.9 2 Norte 4 Noroeste 0 -- -- 43
2019-08-17 03:00:00 23.9 0 Calma 12 Este 0 -- -- 42
2019-08-17 02:00:00 24.8 5 Este 14 Este 0 -- -- 39
2019-08-17 01:00:00 23.7 0 Calma 4 Noroeste 0 -- -- 53
2019-08-17 00:00:00 24 0 Calma 4 Noroeste 0 -- -- 55
2019-08-16 23:00:00 25.1 0 Calma 3 Oeste 0 -- -- 55
2019-08-16 22:00:00 26.7 0 Calma 5 Sur 0 -- -- 52
2019-08-16 21:00:00 29.6 3 Sur 11 Oeste 0 -- -- 45
2019-08-16 20:00:00 32.4 6 Oeste 14 Oeste 0 -- -- 38
2019-08-16 19:00:00 34.1 9 Sudoeste 19 Oeste 0 -- -- 34
2019-08-16 18:00:00 34.5 10 Sudoeste 21 Sur 0 -- -- 32
2019-08-16 17:00:00 35.3 13 Sur 21 Sudoeste 0 -- -- 29
2019-08-16 16:00:00 35.2 12 Sudeste 24 Sur 0 -- -- 29
2019-08-16 15:00:00 34.6 10 Sur 28 Sudoeste 0 -- -- 26
2019-08-16 14:00:00 33.8 10 Sur 24 Sur 0 -- -- 28
2019-08-16 13:00:00 32.9 11 Sur 22 Sur 0 -- -- 29
2019-08-16 12:00:00 32.2 8 Sudoeste 16 Sudoeste 0 -- -- 27
2019-08-16 11:00:00 30.1 5 Sur 16 Sudeste 0 -- -- 31
2019-08-16 10:00:00 26 2 Sudoeste 5 Sudoeste 0 -- -- 41
2019-08-16 09:00:00 22 0 Calma 4 Noroeste 0 -- -- 47
2019-08-16 08:00:00 21.7 3 Este 4 Este 0 -- -- 45
2019-08-16 07:00:00 21.9 0 Calma 4 Este 0 -- -- 44
2019-08-16 06:00:00 22.9 0 Calma 7 Este 0 -- -- 42
2019-08-16 05:00:00 23.2 0 Calma 10 Este 0 -- -- 41
2019-08-16 04:00:00 24.7 5 Este 15 Este 0 -- -- 38
2019-08-16 03:00:00 22.9 2 Este 6 Nordeste 0 -- -- 45
2019-08-16 02:00:00 23.4 0 Calma 6 Este 0 -- -- 48
2019-08-16 01:00:00 24.6 0 Calma 15 Este 0 -- -- 45
2019-08-16 00:00:00 23.8 0 Calma 5 Nordeste 0 -- -- 49
2019-08-15 23:00:00 24.9 0 Calma 5 Oeste 0 -- -- 51
2019-08-15 22:00:00 26.7 0 Calma 6 Oeste 0 -- -- 47
2019-08-15 21:00:00 29.4 3 Sudoeste 17 Sudeste 0 -- -- 38
2019-08-15 20:00:00 31.9 7 Este 19 Este 0 -- -- 34
2019-08-15 19:00:00 33.7 9 Sudeste 21 Sur 0 -- -- 31
2019-08-15 18:00:00 34 8 Este 21 Este 0 -- -- 32
2019-08-15 17:00:00 34.2 8 Este 23 Sur 0 -- -- 33
2019-08-15 16:00:00 34 10 Sur 23 Este 0 -- -- 34
2019-08-15 15:00:00 33.9 10 Sur 24 Sur 0 -- -- 34
2019-08-15 14:00:00 32.9 13 Sudoeste 23 Sur 0 -- -- 33
2019-08-15 13:00:00 32.3 12 Sudoeste 23 Sur 0 -- -- 33
2019-08-15 12:00:00 31 12 Sudoeste 20 Sudoeste 0 -- -- 33
2019-08-15 11:00:00 29.3 6 Sur 14 Sur 0 -- -- 35
2019-08-15 10:00:00 25.8 2 Sur 5 Este 0 -- -- 42
2019-08-15 09:00:00 21.6 2 Este 4 Este 0 -- -- 51
2019-08-15 08:00:00 21.3 4 Este 8 Nordeste 0 -- -- 45
2019-08-15 07:00:00 20.7 0 Calma 4 Este 0 -- -- 55
2019-08-15 06:00:00 20.5 0 Calma 4 Nordeste 0 -- -- 60
2019-08-15 05:00:00 20.8 0 Calma 5 Este 0 -- -- 64
2019-08-15 04:00:00 21.3 0 Calma 4 Este 0 -- -- 69
2019-08-15 03:00:00 22.1 0 Calma 10 Este 0 -- -- 65
2019-08-15 02:00:00 22.1 5 Este 12 Este 0 -- -- 71
2019-08-15 01:00:00 22.6 0 Calma 9 Sudeste 0 -- -- 72
2019-08-15 00:00:00 22.7 0 Calma 4 Noroeste 0 -- -- 73
2019-08-14 23:00:00 23.8 0 Calma 5 Sur 0 -- -- 71
2019-08-14 22:00:00 25.3 0 Calma 5 Oeste 0 -- -- 65
2019-08-14 21:00:00 27.3 3 Sudoeste 10 Noroeste 0 -- -- 59
2019-08-14 20:00:00 30.5 4 Sudoeste 17 Sudoeste 0 -- -- 52
2019-08-14 19:00:00 31.4 10 Sudoeste 19 Sur 0 -- -- 49
2019-08-14 18:00:00 32.5 12 Sudoeste 23 Sudoeste 0 -- -- 46
2019-08-14 17:00:00 32.6 11 Sur 21 Sudoeste 0 -- -- 43
2019-08-14 16:00:00 31.7 11 Sudeste 23 Este 0 -- -- 43
2019-08-14 15:00:00 30.5 9 Sudeste 25 Sudoeste 0 -- -- 49
2019-08-14 14:00:00 28.7 12 Sur 25 Sur 0 -- -- 56
2019-08-14 13:00:00 27.5 11 Sur 30 Sur 0 -- -- 60
2019-08-14 12:00:00 26.7 12 Sudeste 27 Sur 0 -- -- 61
2019-08-14 11:00:00 24.9 13 Sur 23 Sur 0 -- -- 68
2019-08-14 10:00:00 23 8 Sur 17 Sur 0 -- -- 75
2019-08-14 09:00:00 21.3 4 Este 10 Nordeste 0 -- -- 81
2019-08-14 08:00:00 20.5 5 Este 11 Este 0 -- -- 83
2019-08-14 07:00:00 20.4 3 Este 14 Este 0 -- -- 80
2019-08-14 06:00:00 20.2 4 Nordeste 11 Este 0 -- -- 83
2019-08-14 05:00:00 20.7 3 Sur 16 Este 0 -- -- 78
2019-08-14 04:00:00 21.4 3 Sudoeste 19 Nordeste 0 -- -- 77
2019-08-14 03:00:00 21.4 8 Nordeste 18 Este 0 -- -- 77
2019-08-14 02:00:00 21.3 0 Calma 17 Este 0 -- -- 80
2019-08-14 01:00:00 21.8 9 Este 15 Este 0 -- -- 80
2019-08-14 00:00:00 22.2 0 Calma 6 Este 0 -- -- 78
2019-08-13 23:00:00 22.7 0 Calma 5 Oeste 0 -- -- 79
2019-08-13 22:00:00 23.8 3 Oeste 10 Sudeste 0 -- -- 74
2019-08-13 21:00:00 25.6 7 Este 15 Este 0 -- -- 67
2019-08-13 20:00:00 27.9 6 Sudeste 17 Sudeste 0 -- -- 59
2019-08-13 19:00:00 28.7 7 Sudeste 26 Sudoeste 0 -- -- 57
2019-08-13 18:00:00 29.3 8 Sudeste 26 Sur 0 -- -- 56
2019-08-13 17:00:00 29.7 10 Sudeste 25 Sudeste 0 -- -- 53
2019-08-13 16:00:00 31 10 Sudeste 24 Este 0 -- -- 49
2019-08-13 15:00:00 29.8 9 Sudeste 25 Sudeste 0 -- -- 50
2019-08-13 14:00:00 28.1 10 Sur 25 Sudoeste 0 -- -- 51
2019-08-13 13:00:00 28.4 12 Sudoeste 23 Sudoeste 0 -- -- 50
2019-08-13 12:00:00 27.1 11 Sur 24 Sur 0 -- -- 55
2019-08-13 11:00:00 25.8 11 Este 21 Sudeste 0 -- -- 56
2019-08-13 10:00:00 23.5 7 Sudeste 15 Sudeste 0 -- -- 60
2019-08-13 09:00:00 21.1 4 Este 18 Este 0 -- -- 58
2019-08-13 08:00:00 20.1 4 Sudeste 15 Sudeste 0 -- -- 42
2019-08-13 07:00:00 19.7 0 Calma 10 Nordeste 0 -- -- 34
2019-08-13 06:00:00 19.4 3 Este 6 Nordeste 0 -- -- 30
2019-08-13 05:00:00 20 0 Calma 9 Nordeste 0 -- -- 28
2019-08-13 04:00:00 20.5 2 Nordeste 5 Este 0 -- -- 27
2019-08-13 03:00:00 21.6 4 Nordeste 8 Norte 0 -- -- 25
2019-08-13 02:00:00 22.1 5 Nordeste 9 Nordeste 0 -- -- 24
2019-08-13 01:00:00 22.4 3 Este 6 Este 0 -- -- 24
2019-08-13 00:00:00 23.2 2 Este 7 Sudoeste 0 -- -- 22
2019-08-12 23:00:00 25.3 3 Oeste 33 Norte 0 -- -- 19
2019-08-12 22:00:00 26.4 14 Norte 34 Norte 0 -- -- 17
2019-08-12 21:00:00 27.5 13 Norte 30 Norte 0 -- -- 18
2019-08-12 20:00:00 29.5 16 Norte 35 Nordeste 0 -- -- 17
2019-08-12 19:00:00 31.3 12 Norte 25 Norte 0 -- -- 16
2019-08-12 18:00:00 31.6 12 Norte 26 Norte 0 -- -- 15
2019-08-12 17:00:00 31 13 Norte 29 Nordeste 0 -- -- 16
2019-08-12 16:00:00 30.3 13 Norte 32 Noroeste 0 -- -- 18
2019-08-12 15:00:00 29.4 8 Norte 25 Oeste 0 -- -- 20
2019-08-12 14:00:00 29 7 Este 22 Noroeste 0 -- -- 23
2019-08-12 13:00:00 26.7 9 Este 20 Este 0 -- -- 25
2019-08-12 12:00:00 25.9 7 Oeste 22 Sudoeste 0 -- -- 27
2019-08-12 11:00:00 24.5 11 Sudoeste 20 Sudoeste 0 -- -- 29
2019-08-12 10:00:00 22.3 4 Sudoeste 9 Sur 0 -- -- 33
2019-08-12 09:00:00 19 0 Calma 9 Este 0 -- -- 39
2019-08-12 08:00:00 18.2 3 Nordeste 9 Sudoeste 0 -- -- 39
2019-08-12 07:00:00 18.4 2 Sudoeste 12 Sudeste 0 -- -- 37
2019-08-12 06:00:00 18.3 0 Calma 8 Nordeste 0 -- -- 39
2019-08-12 05:00:00 18.9 4 Sudeste 12 Sudeste 0 -- -- 39
2019-08-12 04:00:00 19.3 0 Calma 9 Este 0 -- -- 41
2019-08-12 03:00:00 20.4 2 Noroeste 9 Oeste 0 -- -- 40
2019-08-12 02:00:00 21.7 6 Sur 26 Oeste 0 -- -- 36
2019-08-12 01:00:00 22.1 3 Este 9 Este 0 -- -- 36
2019-08-12 00:00:00 24.1 6 Sudeste 30 Norte 0 -- -- 32
2019-08-11 23:00:00 24.7 11 Norte 28 Norte 0 -- -- 32
2019-08-11 22:00:00 25 6 Sudeste 33 Nordeste 0 -- -- 28
2019-08-11 21:00:00 25.9 14 Nordeste 28 Nordeste 0 -- -- 27
2019-08-11 20:00:00 29.2 11 Nordeste 30 Norte 0 -- -- 24
2019-08-11 19:00:00 30.2 13 Nordeste 30 Noroeste 0 -- -- 23
2019-08-11 18:00:00 30.9 15 Noroeste 32 Noroeste 0 -- -- 24
2019-08-11 17:00:00 32.2 14 Nordeste 33 Nordeste 0 -- -- 21
2019-08-11 16:00:00 31 12 Noroeste 37 Noroeste 0 -- -- 23
2019-08-11 15:00:00 30.5 13 Noroeste 38 Oeste 0 -- -- 24
2019-08-11 14:00:00 30.5 8 Norte 39 Nordeste 0 -- -- 17
2019-08-11 13:00:00 30 11 Norte 31 Noroeste 0 -- -- 16
2019-08-11 12:00:00 28.7 9 Noroeste 27 Oeste 0 -- -- 25
2019-08-11 11:00:00 27.1 12 Norte 30 Norte 0 -- -- 26
2019-08-11 10:00:00 25.7 9 Sudeste 38 Norte 0 -- -- 33
2019-08-11 09:00:00 22.4 5 Sudeste 33 Nordeste 0 -- -- 39
2019-08-11 08:00:00 23.7 15 Nordeste 39 Este 0 -- -- 33
2019-08-11 07:00:00 22.9 11 Este 34 Nordeste 0 -- -- 36
2019-08-11 06:00:00 21.8 10 Sur 17 Sur 0 -- -- 42
2019-08-11 05:00:00 21.6 3 Sudeste 6 Sudeste 0 -- -- 55
2019-08-11 04:00:00 22.1 2 Sudeste 5 Sur 0 -- -- 61
2019-08-11 03:00:00 22.9 3 Este 6 Oeste 0 -- -- 59
2019-08-11 02:00:00 23.5 0 Calma 5 Sudeste 0 -- -- 57
2019-08-11 01:00:00 24.3 0 Calma 3 Sur 0 -- -- 56
2019-08-11 00:00:00 25.5 0 Calma 5 Sur 0 -- -- 52
2019-08-10 23:00:00 26.9 2 Sur 6 Oeste 0 -- -- 48
2019-08-10 22:00:00 28.8 0 Calma 9 Oeste 0 -- -- 44
2019-08-10 21:00:00 31.3 6 Oeste 17 Oeste 0 -- -- 40
2019-08-10 20:00:00 34.2 9 Oeste 18 Oeste 0 -- -- 34
2019-08-10 19:00:00 35.5 11 Oeste 24 Oeste 0 -- -- 31
2019-08-10 18:00:00 35.5 15 Oeste 27 Oeste 0 -- -- 30
2019-08-10 17:00:00 36.1 12 Oeste 27 Oeste 0 -- -- 30
2019-08-10 16:00:00 35.5 8 Oeste 27 Oeste 0 -- -- 32
2019-08-10 15:00:00 34.4 9 Sur 22 Noroeste 0 -- -- 34
2019-08-10 14:00:00 32 10 Noroeste 23 Noroeste 0 -- -- 34
2019-08-10 13:00:00 31.1 11 Noroeste 26 Oeste 0 -- -- 40
2019-08-10 12:00:00 30 13 Noroeste 23 Noroeste 0 -- -- 37
2019-08-10 11:00:00 28.7 4 Sur 13 Sur 0 -- -- 50
2019-08-10 10:00:00 25.7 3 Sur 6 Oeste 0 -- -- 61
2019-08-10 09:00:00 22.5 0 Calma 22 Este 0 -- -- 70
2019-08-10 08:00:00 21.8 5 Sur 13 Sur 0 -- -- 69
2019-08-10 07:00:00 21.9 4 Este 9 Sur 0 -- -- 66
2019-08-10 06:00:00 21.6 3 Este 7 Nordeste 0 -- -- 62
2019-08-10 05:00:00 22.1 3 Nordeste 6 Nordeste 0 -- -- 59
2019-08-10 04:00:00 22.8 2 Norte 6 Sudeste 0 -- -- 56
2019-08-10 03:00:00 23.1 0 Calma 8 Sudeste 0 -- -- 50
2019-08-10 02:00:00 23.9 6 Sudeste 9 Sudeste 0 -- -- 42
2019-08-10 01:00:00 24.5 3 Nordeste 6 Este 0 -- -- 41
2019-08-10 00:00:00 25.1 2 Nordeste 6 Este 0 -- -- 41
2019-08-09 23:00:00 25.8 3 Este 7 Sur 0 -- -- 44
2019-08-09 22:00:00 28.3 3 Sur 6 Sudeste 0 -- -- 40
2019-08-09 21:00:00 30.8 3 Sudoeste 20 Norte 0 -- -- 35
2019-08-09 20:00:00 32.1 15 Norte 29 Norte 0 -- -- 33
2019-08-09 19:00:00 33.4 12 Noroeste 27 Noroeste 0 -- -- 33
2019-08-09 18:00:00 35.1 9 Noroeste 33 Noroeste 0 -- -- 30
2019-08-09 17:00:00 35.3 14 Noroeste 32 Oeste 0 -- -- 29
2019-08-09 16:00:00 36 11 Oeste 27 Oeste 0 -- -- 23
2019-08-09 15:00:00 34.6 6 Sudoeste 19 Oeste 0 -- -- 24
2019-08-09 14:00:00 33.9 8 Sudoeste 20 Oeste 0 -- -- 25
2019-08-09 13:00:00 32.4 10 Noroeste 18 Oeste 0 -- -- 25
2019-08-09 12:00:00 31.5 7 Nordeste 21 Oeste 0 -- -- 26
2019-08-09 11:00:00 29.5 6 Sur 12 Sur 0 -- -- 31
2019-08-09 10:00:00 25.9 7 Sur 11 Sur 0 -- -- 33
2019-08-09 09:00:00 21.7 4 Este 6 Este 0 -- -- 38
2019-08-09 08:00:00 20.8 3 Nordeste 5 Nordeste 0 -- -- 40
2019-08-09 07:00:00 20.2 0 Calma 9 Nordeste 0 -- -- 42
2019-08-09 06:00:00 20.5 3 Nordeste 8 Nordeste 0 -- -- 42
2019-08-09 05:00:00 20.7 0 Calma 5 Este 0 -- -- 43
2019-08-09 04:00:00 21 0 Calma 4 Oeste 0 -- -- 46
2019-08-09 03:00:00 22 0 Calma 5 Nordeste 0 -- -- 44
2019-08-09 02:00:00 23 0 Calma 5 Este 0 -- -- 43
2019-08-09 01:00:00 24.3 0 Calma 6 Noroeste 0 -- -- 40
2019-08-09 00:00:00 25.7 2 Este 4 Norte 0 -- -- 38
2019-08-08 23:00:00 27.5 0 Calma 5 Nordeste 0 -- -- 35
2019-08-08 22:00:00 29.3 0 Calma 5 Nordeste 0 -- -- 30
2019-08-08 21:00:00 32.7 4 Oeste 16 Oeste 0 -- -- 25
2019-08-08 20:00:00 35.2 10 Oeste 19 Oeste 0 -- -- 19
2019-08-08 19:00:00 36.5 14 Oeste 26 Oeste 0 -- -- 19
2019-08-08 18:00:00 36.8 14 Oeste 28 Sur 0 -- -- 20
2019-08-08 17:00:00 37.2 12 Oeste 27 Oeste 0 -- -- 20
2019-08-08 16:00:00 37.3 12 Oeste 23 Sudoeste 0 -- -- 20
2019-08-08 15:00:00 35.9 10 Sur 21 Sudoeste 0 -- -- 20
2019-08-08 14:00:00 35.1 9 Sudoeste 20 Oeste 0 -- -- 19
2019-08-08 13:00:00 33.9 9 Sudoeste 18 Oeste 0 -- -- 22
2019-08-08 12:00:00 32.3 5 Oeste 12 Oeste 0 -- -- 25
2019-08-08 11:00:00 29.9 4 Sur 9 Sudoeste 0 -- -- 35
2019-08-08 10:00:00 26 0 Calma 5 Este 0 -- -- 40
2019-08-08 09:00:00 22.2 2 Sudeste 6 Sudeste 0 -- -- 49
2019-08-08 08:00:00 21.4 5 Nordeste 8 Nordeste 0 -- -- 47
2019-08-08 07:00:00 21.5 6 Nordeste 10 Este 0 -- -- 49
2019-08-08 06:00:00 21.6 6 Este 10 Sudeste 0 -- -- 51
2019-08-08 05:00:00 21.6 2 Nordeste 9 Nordeste 0 -- -- 50
2019-08-08 04:00:00 21.5 2 Este 7 Sudeste 0 -- -- 50
2019-08-08 03:00:00 21.9 0 Calma 6 Sudeste 0 -- -- 51
2019-08-08 02:00:00 22.7 3 Sudeste 6 Sudeste 0 -- -- 50
2019-08-08 01:00:00 23.9 0 Calma 4 Norte 0 -- -- 48
2019-08-08 00:00:00 25.1 0 Calma 6 Sudeste 0 -- -- 45
2019-08-07 23:00:00 26.5 2 Norte 5 Norte 0 -- -- 43
2019-08-07 22:00:00 27.8 3 Sudeste 19 Norte 0 -- -- 40
2019-08-07 21:00:00 29.5 10 Norte 24 Nordeste 0 -- -- 37
2019-08-07 20:00:00 30.8 9 Norte 31 Norte 0 -- -- 31
2019-08-07 19:00:00 33.2 12 Norte 30 Norte 0 -- -- 24
2019-08-07 18:00:00 33.3 18 Norte 33 Norte 0 -- -- 27
2019-08-07 17:00:00 35.6 10 Nordeste 20 Norte 0 -- -- 23
2019-08-07 16:00:00 35.3 12 Oeste 25 Noroeste 0 -- -- 22
2019-08-07 15:00:00 35.1 8 Nordeste 21 Nordeste 0 -- -- 21
2019-08-07 14:00:00 33.8 9 Norte 25 Oeste 0 -- -- 23
2019-08-07 13:00:00 32.5 8 Noroeste 20 Oeste 0 -- -- 22
2019-08-07 12:00:00 31.5 9 Oeste 19 Oeste 0 -- -- 22
2019-08-07 11:00:00 30.4 4 Sudeste 9 Sur 0 -- -- 22
2019-08-07 10:00:00 26.4 5 Sur 8 Sur 0 -- -- 23
2019-08-07 09:00:00 22.8 4 Este 9 Nordeste 0 -- -- 25
2019-08-07 08:00:00 22.1 2 Nordeste 8 Sur 0 -- -- 26
2019-08-07 07:00:00 21.5 2 Este 10 Nordeste 0 -- -- 25
2019-08-07 06:00:00 21.9 2 Nordeste 7 Nordeste 0 -- -- 32
2019-08-07 05:00:00 21.8 3 Nordeste 5 Nordeste 0 -- -- 33
2019-08-07 04:00:00 22.1 2 Nordeste 6 Este 0 -- -- 32
2019-08-07 03:00:00 22.7 3 Nordeste 6 Este 0 -- -- 42
2019-08-07 02:00:00 23 0 Calma 4 Sudeste 0 -- -- 44
2019-08-07 01:00:00 23.9 0 Calma 5 Norte 0 -- -- 43
2019-08-07 00:00:00 25.6 0 Calma 6 Noroeste 0 -- -- 39
2019-08-06 23:00:00 27.4 3 Noroeste 6 Noroeste 0 -- -- 35
2019-08-06 22:00:00 29.6 0 Calma 11 Sudoeste 0 -- -- 31
2019-08-06 21:00:00 33.1 4 Oeste 12 Sudoeste 0 -- -- 25
2019-08-06 20:00:00 35.7 9 Sudoeste 18 Sudoeste 0 -- -- 20
2019-08-06 19:00:00 37 9 Sudoeste 21 Oeste 0 -- -- 21
2019-08-06 18:00:00 37.3 9 Oeste 26 Sudoeste 0 -- -- 20
2019-08-06 17:00:00 37.2 12 Sudoeste 27 Sudoeste 0 -- -- 20
2019-08-06 16:00:00 36.4 9 Oeste 25 Oeste 0 -- -- 20
2019-08-06 15:00:00 36 8 Sudoeste 24 Sudoeste 0 -- -- 20
2019-08-06 14:00:00 35.1 8 Sur 18 Sudoeste 0 -- -- 19
2019-08-06 13:00:00 32.8 9 Noroeste 15 Oeste 0 -- -- 18
2019-08-06 12:00:00 31.1 7 Oeste 15 Oeste 0 -- -- 25
2019-08-06 11:00:00 29.4 6 Oeste 10 Oeste 0 -- -- 37
2019-08-06 10:00:00 26.8 3 Sur 5 Sudoeste 0 -- -- 40
2019-08-06 09:00:00 22.8 0 Calma 5 Este 0 -- -- 54
2019-08-06 08:00:00 22.4 5 Norte 13 Nordeste 0 -- -- 50
2019-08-06 07:00:00 22.1 2 Sudeste 12 Nordeste 0 -- -- 52
2019-08-06 06:00:00 22.5 0 Calma 4 Noroeste 0 -- -- 52
2019-08-06 05:00:00 22.9 0 Calma 7 Nordeste 0 -- -- 51
2019-08-06 04:00:00 22.9 2 Este 8 Este 0 -- -- 51
2019-08-06 03:00:00 23.9 3 Nordeste 6 Nordeste 0 -- -- 49
2019-08-06 02:00:00 23.7 2 Este 4 Sudoeste 0 -- -- 49
2019-08-06 01:00:00 24.7 0 Calma 6 Nordeste 0 -- -- 48
2019-08-06 00:00:00 25.3 0 Calma 6 Sudeste 0 -- -- 47
2019-08-05 23:00:00 26.2 3 Sudeste 6 Sudeste 0 -- -- 45
2019-08-05 22:00:00 27.8 2 Noroeste 9 Oeste 0 -- -- 43
2019-08-05 21:00:00 30.6 4 Oeste 14 Oeste 0 -- -- 39
2019-08-05 20:00:00 32.8 10 Sudoeste 24 Sur 0 -- -- 39
2019-08-05 19:00:00 34.7 12 Sudoeste 26 Sur 0 -- -- 37
2019-08-05 18:00:00 35.4 12 Sudoeste 26 Sudoeste 0 -- -- 34
2019-08-05 17:00:00 35.4 10 Sudoeste 27 Oeste 0 -- -- 33
2019-08-05 16:00:00 35.1 13 Oeste 28 Sudoeste 0 -- -- 34
2019-08-05 15:00:00 35 14 Sudoeste 22 Oeste 0 -- -- 32
2019-08-05 14:00:00 33.8 9 Sudoeste 20 Sur 0 -- -- 35
2019-08-05 13:00:00 32.9 8 Sudoeste 17 Oeste 0 -- -- 35
2019-08-05 12:00:00 31.5 8 Oeste 17 Oeste 0 -- -- 38
2019-08-05 11:00:00 30.2 4 Oeste 9 Sudoeste 0 -- -- 41
2019-08-05 10:00:00 27.4 2 Sudoeste 4 Sudoeste 0 -- -- 49
2019-08-05 09:00:00 23.9 0 Calma 4 Este 0 -- -- 56
2019-08-05 08:00:00 22.9 0 Calma 4 Este 0 -- -- 56
2019-08-05 07:00:00 22.9 0 Calma 3 Este 0 -- -- 57
2019-08-05 06:00:00 22.9 0 Calma 3 Este 0 -- -- 56
2019-08-05 05:00:00 23.4 4 Nordeste 8 Nordeste 0 -- -- 54
2019-08-05 04:00:00 23.9 0 Calma 5 Este 0 -- -- 54
2019-08-05 03:00:00 23.9 2 Este 6 Nordeste 0 -- -- 54
2019-08-05 02:00:00 24.1 2 Nordeste 4 Nordeste 0 -- -- 54
2019-08-05 01:00:00 24.5 2 Este 5 Sudeste 0 -- -- 54
2019-08-05 00:00:00 25.9 2 Norte 4 Noroeste 0 -- -- 53
2019-08-04 23:00:00 26.7 2 Este 5 Este 0 -- -- 51
2019-08-04 22:00:00 28.5 3 Oeste 7 Oeste 0 -- -- 47
2019-08-04 21:00:00 31.1 5 Oeste 16 Sudoeste 0 -- -- 42
2019-08-04 20:00:00 33.4 9 Sudoeste 20 Sudoeste 0 -- -- 38
2019-08-04 19:00:00 34.2 12 Sudoeste 23 Oeste 0 -- -- 36
2019-08-04 18:00:00 34.6 13 Sudoeste 25 Sudoeste 0 -- -- 35
2019-08-04 17:00:00 34.9 11 Sudoeste 22 Oeste 0 -- -- 33
2019-08-04 16:00:00 34.9 10 Oeste 23 Oeste 0 -- -- 34
2019-08-04 15:00:00 34.3 13 Sudoeste 26 Sudoeste 0 -- -- 33
2019-08-04 14:00:00 33.8 13 Sudoeste 25 Sudoeste 0 -- -- 34
2019-08-04 13:00:00 32.4 8 Oeste 17 Oeste 0 -- -- 37
2019-08-04 12:00:00 31.5 6 Sur 17 Sur 0 -- -- 43
2019-08-04 11:00:00 29.4 5 Sudoeste 8 Sur 0 -- -- 48
2019-08-04 10:00:00 25.8 3 Sudoeste 4 Oeste 0 -- -- 55
2019-08-04 09:00:00 22.3 0 Calma 5 Este 0 -- -- 67
2019-08-04 08:00:00 21 3 Nordeste 5 Este 0 -- -- 66
2019-08-04 07:00:00 20.7 2 Sudeste 5 Oeste 0 -- -- 66
2019-08-04 06:00:00 20.7 0 Calma 4 Noroeste 0 -- -- 66
2019-08-04 05:00:00 21.2 0 Calma 4 Sudeste 0 -- -- 65
2019-08-04 04:00:00 21.5 0 Calma 4 Sur 0 -- -- 64
2019-08-04 03:00:00 22 0 Calma 4 Sudeste 0 -- -- 62
2019-08-04 02:00:00 22.3 0 Calma 3 Este 0 -- -- 61
2019-08-04 01:00:00 23.1 0 Calma 3 Oeste 0 -- -- 59
2019-08-04 00:00:00 23.6 0 Calma 3 Sudeste 0 -- -- 57
2019-08-03 23:00:00 24.4 0 Calma 4 Noroeste 0 -- -- 55
2019-08-03 22:00:00 25.8 0 Calma 12 Oeste 0 -- -- 51
2019-08-03 21:00:00 27.8 5 Oeste 14 Sudoeste 0 -- -- 47
2019-08-03 20:00:00 30.4 9 Sudoeste 19 Sudoeste 0 -- -- 42
2019-08-03 19:00:00 32.2 9 Sudoeste 21 Sudoeste 0 -- -- 40
2019-08-03 18:00:00 32.5 11 Sudoeste 23 Sur 0 -- -- 40
2019-08-03 17:00:00 32.7 13 Sudoeste 24 Oeste 0 -- -- 42
2019-08-03 16:00:00 33.3 12 Sudoeste 20 Sudoeste 0 -- -- 41
2019-08-03 15:00:00 32.7 9 Sudoeste 21 Sur 0 -- -- 42
2019-08-03 14:00:00 31.2 10 Sudoeste 19 Oeste 0 -- -- 43
2019-08-03 13:00:00 29.7 7 Sudoeste 18 Sudoeste 0 -- -- 46
2019-08-03 12:00:00 29.1 8 Sudoeste 13 Sudoeste 0 -- -- 46
2019-08-03 11:00:00 27.7 5 Sudoeste 10 Sur 0 -- -- 47
2019-08-03 10:00:00 25.1 3 Sudoeste 6 Sudoeste 0 -- -- 54
2019-08-03 09:00:00 21.8 0 Calma 4 Sudeste 0 -- -- 63
2019-08-03 08:00:00 20.7 0 Calma 5 Este 0 -- -- 63
2019-08-03 07:00:00 20.6 0 Calma 5 Nordeste 0 -- -- 63
2019-08-03 06:00:00 20.7 0 Calma 5 Oeste 0 -- -- 63
2019-08-03 05:00:00 21.2 2 Noroeste 5 Noroeste 0 -- -- 60
2019-08-03 04:00:00 21.8 0 Calma 5 Este 0 -- -- 56
2019-08-03 03:00:00 22 0 Calma 3 Este 0 -- -- 55
2019-08-03 02:00:00 22.8 0 Calma 5 Este 0 -- -- 53
2019-08-03 01:00:00 23.2 0 Calma 5 Nordeste 0 -- -- 53
2019-08-03 00:00:00 24.1 2 Nordeste 5 Oeste 0 -- -- 51
2019-08-02 23:00:00 25.1 3 Este 8 Noroeste 0 -- -- 48
2019-08-02 22:00:00 26.9 4 Noroeste 13 Oeste 0 -- -- 48
2019-08-02 21:00:00 30.2 6 Oeste 15 Sudoeste 0 -- -- 42
2019-08-02 20:00:00 32.8 8 Sudoeste 19 Oeste 0 -- -- 38
2019-08-02 19:00:00 34.1 9 Oeste 22 Sudoeste 0 -- -- 36
2019-08-02 18:00:00 34.5 13 Oeste 29 Sur 0 -- -- 34
2019-08-02 17:00:00 35.1 9 Sudoeste 22 Sudoeste 0 -- -- 32
2019-08-02 16:00:00 34.8 12 Oeste 24 Oeste 0 -- -- 31
2019-08-02 15:00:00 34.5 13 Oeste 24 Oeste 0 -- -- 30
2019-08-02 14:00:00 33.6 9 Oeste 21 Oeste 0 -- -- 27
2019-08-02 13:00:00 31.7 9 Noroeste 24 Oeste 0 -- -- 30
2019-08-02 12:00:00 30.8 13 Noroeste 20 Oeste 0 -- -- 30
2019-08-02 11:00:00 29.8 5 Sur 9 Sur 0 -- -- 36
2019-08-02 10:00:00 25.7 0 Calma 2 Noroeste 0 -- -- 43
2019-08-02 09:00:00 21.5 0 Calma 5 Este 0 -- -- 53
2019-08-02 08:00:00 20.5 3 Este 6 Nordeste 0 -- -- 54
2019-08-02 07:00:00 20.8 4 Nordeste 6 Nordeste 0 -- -- 52
2019-08-02 06:00:00 20.8 0 Calma 4 Este 0 -- -- 55
2019-08-02 05:00:00 21.2 0 Calma 8 Nordeste 0 -- -- 55
2019-08-02 04:00:00 22.1 2 Norte 6 Nordeste 0 -- -- 57
2019-08-02 03:00:00 22.3 3 Nordeste 6 Nordeste 0 -- -- 63
2019-08-02 02:00:00 22.7 3 Nordeste 8 Este 0 -- -- 68
2019-08-02 01:00:00 23 0 Calma 5 Este 0 -- -- 72
2019-08-02 00:00:00 23.4 0 Calma 5 Este 0 -- -- 71
2019-08-01 23:00:00 24.2 0 Calma 5 Sur 0 -- -- 69
2019-08-01 22:00:00 25.5 2 Este 8 Oeste 0 -- -- 66
2019-08-01 21:00:00 27.7 4 Oeste 12 Sudoeste 0 -- -- 60
2019-08-01 20:00:00 29.9 7 Oeste 21 Sudoeste 0 -- -- 54
2019-08-01 19:00:00 31.4 10 Sudoeste 19 Sudoeste 0 -- -- 51
2019-08-01 18:00:00 31.7 9 Sudoeste 22 Oeste 0 -- -- 50
2019-08-01 17:00:00 30.9 12 Oeste 22 Oeste 0 -- -- 52
2019-08-01 16:00:00 31.1 12 Oeste 22 Sudoeste 0 -- -- 52
2019-08-01 15:00:00 30.1 9 Noroeste 19 Sudoeste 0 -- -- 52
2019-08-01 14:00:00 28.8 10 Sudoeste 21 Sudeste 0 -- -- 55
2019-08-01 13:00:00 27.7 11 Oeste 20 Oeste 0 -- -- 56
2019-08-01 12:00:00 26.6 8 Sudoeste 20 Sudoeste 0 -- -- 59
2019-08-01 11:00:00 25.4 8 Sur 21 Sur 0 -- -- 62
2019-08-01 10:00:00 23.4 8 Sur 17 Sudoeste 0 -- -- 66
2019-08-01 09:00:00 21.3 8 Este 20 Este 0 -- -- 72
2019-08-01 08:00:00 20.9 8 Este 24 Este 0 -- -- 76
2019-08-01 07:00:00 21 6 Este 24 Sudeste 0 -- -- 77
2019-08-01 06:00:00 21.1 7 Este 18 Este 0 -- -- 79
2019-08-01 05:00:00 20.8 6 Este 22 Sur 0 -- -- 78
2019-08-01 04:00:00 20.6 6 Este 18 Sudeste 0 -- -- 77
2019-08-01 03:00:00 21.2 6 Sudeste 28 Este 0 -- -- 72
2019-08-01 02:00:00 21.3 7 Este 21 Este 0 -- -- 71
2019-08-01 01:00:00 21.1 8 Este 19 Este 0 -- -- 73
2019-08-01 00:00:00 21.3 6 Nordeste 14 Nordeste 0 -- -- 76
2019-07-31 23:00:00 22.1 4 Este 19 Nordeste 0 -- -- 67
2019-07-31 22:00:00 22.5 6 Sudeste 20 Sudeste 0 -- -- 67
2019-07-31 21:00:00 23.6 10 Sudeste 21 Este 0 -- -- 70
2019-07-31 20:00:00 26.4 11 Sudeste 25 Sudeste 0 -- -- 62
2019-07-31 19:00:00 27.9 10 Sur 24 Sudoeste 0 -- -- 57
2019-07-31 18:00:00 28.6 12 Sur 29 Sur 0 -- -- 52
2019-07-31 17:00:00 28 16 Sudoeste 28 Sudoeste 0 -- -- 52
2019-07-31 16:00:00 27 13 Sur 28 Sur 0 -- -- 58
2019-07-31 15:00:00 26.8 12 Sur 33 Sur 0 -- -- 59
2019-07-31 14:00:00 26.7 14 Sur 40 Sur 0 -- -- 58
2019-07-31 13:00:00 27.1 14 Sur 31 Sudeste 0 -- -- 56
2019-07-31 12:00:00 26.3 13 Sur 30 Este 0 -- -- 56
2019-07-31 11:00:00 25.1 14 Sudeste 30 Sudeste 0 -- -- 50
2019-07-31 10:00:00 23.3 9 Sudeste 25 Sur 0 -- -- 50
2019-07-31 09:00:00 21.7 6 Sur 21 Este 0 -- -- 60
2019-07-31 08:00:00 21.3 5 Sudeste 22 Este 0 -- -- 58
2019-07-31 07:00:00 20.9 5 Sur 20 Este 0 -- -- 59
2019-07-31 06:00:00 20.9 4 Sudeste 17 Este 0 -- -- 55
2019-07-31 05:00:00 22 7 Este 21 Este 0 -- -- 51
2019-07-31 04:00:00 21.8 0 Calma 8 Noroeste 0 -- -- 47
2019-07-31 03:00:00 23.1 3 Norte 14 Este 0 -- -- 44
2019-07-31 02:00:00 23.6 0 Calma 13 Nordeste 0 -- -- 40
2019-07-31 01:00:00 24.7 4 Este 16 Este 0 -- -- 37
2019-07-31 00:00:00 24.3 0 Calma 5 Norte 0 -- -- 41
2019-07-30 23:00:00 25.4 0 Calma 6 Sur 0 -- -- 38
2019-07-30 22:00:00 27.3 3 Noroeste 5 Sudoeste 0 -- -- 35
2019-07-30 21:00:00 30.1 3 Noroeste 15 Sudoeste 0 -- -- 30
2019-07-30 20:00:00 33.1 8 Sudoeste 18 Sudoeste 0 -- -- 29
2019-07-30 19:00:00 34.4 11 Sudoeste 26 Oeste 0 -- -- 28
2019-07-30 18:00:00 34.8 11 Oeste 22 Sudoeste 0 -- -- 28
2019-07-30 17:00:00 34.6 12 Oeste 27 Sudoeste 0 -- -- 27
2019-07-30 16:00:00 34.8 10 Sudoeste 26 Oeste 0 -- -- 26
2019-07-30 15:00:00 34 12 Sudoeste 24 Oeste 0 -- -- 26
2019-07-30 14:00:00 33.3 9 Sudeste 20 Sudoeste 0 -- -- 26
2019-07-30 13:00:00 32.1 9 Oeste 18 Oeste 0 -- -- 26
2019-07-30 12:00:00 30.4 4 Oeste 13 Oeste 0 -- -- 28
2019-07-30 11:00:00 28.9 6 Sudoeste 10 Oeste 0 -- -- 31
2019-07-30 10:00:00 25.8 0 Calma 6 Sudeste 0 -- -- 40
2019-07-30 09:00:00 21.2 4 Este 8 Sudeste 0 -- -- 50
2019-07-30 08:00:00 20.4 0 Calma 6 Nordeste 0 -- -- 51
2019-07-30 07:00:00 20.2 0 Calma 9 Nordeste 0 -- -- 51
2019-07-30 06:00:00 20.3 3 Este 6 Nordeste 0 -- -- 53
2019-07-30 05:00:00 20.9 3 Este 6 Este 0 -- -- 51
2019-07-30 04:00:00 22 3 Norte 6 Nordeste 0 -- -- 49
2019-07-30 03:00:00 22.4 2 Norte 9 Sudoeste 0 -- -- 47
2019-07-30 02:00:00 24.8 5 Sur 33 Norte 0 -- -- 41
2019-07-30 01:00:00 25.6 15 Norte 36 Norte 0 -- -- 38
2019-07-30 00:00:00 25.5 11 Nordeste 30 Norte 0 -- -- 43
2019-07-29 23:00:00 25.6 5 Sur 22 Norte 0 -- -- 42
2019-07-29 22:00:00 26.8 16 Norte 31 Norte 0 -- -- 38
2019-07-29 21:00:00 28.7 17 Norte 30 Norte 0 -- -- 35
2019-07-29 20:00:00 31.3 12 Norte 32 Nordeste 0 -- -- 34
2019-07-29 19:00:00 32.4 13 Nordeste 26 Nordeste 0 -- -- 32
2019-07-29 18:00:00 33 11 Nordeste 24 Nordeste 0 -- -- 30
2019-07-29 17:00:00 32.9 10 Norte 30 Norte 0 -- -- 30
2019-07-29 16:00:00 31.7 14 Norte 28 Norte 0 -- -- 32
2019-07-29 15:00:00 31.2 10 Nordeste 28 Norte 0 -- -- 31
2019-07-29 14:00:00 30 12 Norte 27 Noroeste 0 -- -- 33
2019-07-29 13:00:00 29.2 14 Noroeste 28 Oeste 0 -- -- 37
2019-07-29 12:00:00 28.3 9 Sudoeste 15 Sudoeste 0 -- -- 42
2019-07-29 11:00:00 27.1 6 Sur 10 Sudoeste 0 -- -- 44
2019-07-29 10:00:00 23.9 3 Oeste 5 Sudoeste 0 -- -- 53
2019-07-29 09:00:00 20.2 3 Nordeste 6 Este 0 -- -- 63
2019-07-29 08:00:00 19 3 Este 8 Nordeste 0 -- -- 66
2019-07-29 07:00:00 19.2 3 Nordeste 4 Nordeste 0 -- -- 67
2019-07-29 06:00:00 19.3 2 Nordeste 10 Este 0 -- -- 68
2019-07-29 05:00:00 19.4 0 Calma 2 Norte 0 -- -- 70
2019-07-29 04:00:00 19.8 0 Calma 4 Este 0 -- -- 70
2019-07-29 03:00:00 20 0 Calma 4 Este 0 -- -- 68
2019-07-29 02:00:00 20.8 2 Noroeste 6 Nordeste 0 -- -- 67
2019-07-29 01:00:00 20.6 3 Este 3 Este 0 -- -- 66
2019-07-29 00:00:00 21.5 0 Calma 5 Sudeste 0 -- -- 63
2019-07-28 23:00:00 22.2 0 Calma 4 Oeste 0 -- -- 61
2019-07-28 22:00:00 23.5 4 Oeste 9 Noroeste 0 -- -- 59
2019-07-28 21:00:00 26.3 5 Oeste 16 Sudoeste 0 -- -- 51
2019-07-28 20:00:00 29 9 Sudoeste 18 Sudoeste 0 -- -- 46
2019-07-28 19:00:00 30 11 Sudoeste 23 Sudoeste 0 -- -- 43
2019-07-28 18:00:00 30.3 12 Sudoeste 24 Sudoeste 0 -- -- 42
2019-07-28 17:00:00 30.5 12 Sudoeste 23 Sudoeste 0 -- -- 40
2019-07-28 16:00:00 29.8 12 Sudoeste 22 Oeste 0 -- -- 41
2019-07-28 15:00:00 29.4 11 Sudoeste 19 Sudoeste 0 -- -- 43
2019-07-28 14:00:00 28 10 Sudoeste 20 Sur 0 -- -- 43
2019-07-28 13:00:00 25.8 8 Oeste 18 Oeste 0 -- -- 49
2019-07-28 12:00:00 24.4 8 Oeste 18 Oeste 0 -- -- 54
2019-07-28 11:00:00 22.7 3 Sur 9 Sur 0 -- -- 62
2019-07-28 10:00:00 19.6 4 Sur 7 Sur 0 -- -- 76
2019-07-28 09:00:00 16.3 3 Sur 5 Sudeste 0 -- -- 90
2019-07-28 08:00:00 15.4 0 Calma 3 Este 0 -- -- 88
2019-07-28 07:00:00 15.3 0 Calma 2 Este 0 -- -- 86
2019-07-28 06:00:00 16.1 0 Calma 3 Este 0 -- -- 85
2019-07-28 05:00:00 16.7 0 Calma 4 Noroeste 0 -- -- 84
2019-07-28 04:00:00 17.1 3 Noroeste 6 Oeste 0 -- -- 85
2019-07-28 03:00:00 17.7 4 Sudeste 12 Oeste 0 -- -- 82
2019-07-28 02:00:00 18.5 0 Calma 10 Noroeste 0 -- -- 81
2019-07-28 01:00:00 19.2 9 Oeste 22 Oeste 0 -- -- 79
2019-07-28 00:00:00 19.3 8 Oeste 20 Oeste 0 -- -- 78
2019-07-27 23:00:00 19.8 10 Oeste 20 Oeste 0 -- -- 77
2019-07-26 12:00:00 -- -- -- -- -- -- -- -- --
2019-07-26 11:00:00 -- -- -- -- -- -- -- -- --
2019-07-26 10:00:00 -- -- -- -- -- -- -- -- --
2019-07-26 09:00:00 -- -- -- -- -- -- -- -- --
2019-07-26 08:00:00 18.6 0 Calma 4 Norte 0 -- -- 47
2019-07-26 07:00:00 18.7 0 Calma 5 Este 0 -- -- 53
2019-07-26 06:00:00 19.2 0 Calma 3 Sudeste 0 -- -- 57
2019-07-26 05:00:00 20.3 0 Calma 6 Norte 0 -- -- 58
2019-07-26 04:00:00 20.8 0 Calma 4 Norte 0 -- -- 57
2019-07-26 03:00:00 21.5 0 Calma 4 Nordeste 0 -- -- 58
2019-07-26 02:00:00 21.7 0 Calma 4 Este 0 -- -- 62
2019-07-26 01:00:00 22.5 0 Calma 6 Este 0 -- -- 60
2019-07-26 00:00:00 23.5 2 Nordeste 7 Este 0 -- -- 56
2019-07-25 23:00:00 24.7 3 Este 5 Sur 0 -- -- 53
2019-07-25 22:00:00 26.3 4 Oeste 16 Sudoeste 0 -- -- 49
2019-07-25 21:00:00 29.4 6 Sudoeste 19 Sudoeste 0 -- -- 46
2019-07-25 20:00:00 32 12 Sudoeste 22 Sudoeste 0 -- -- 38
2019-07-25 19:00:00 33.3 10 Sudoeste 24 Sudoeste 0 -- -- 31
2019-07-25 18:00:00 33.8 13 Sudoeste 22 Sudoeste 0 -- -- 32
2019-07-25 17:00:00 34 12 Sudoeste 23 Sudoeste 0 -- -- 34
2019-07-25 16:00:00 33.6 11 Oeste 24 Sudoeste 0 -- -- 35
2019-07-25 15:00:00 32.9 10 Sudoeste 25 Sudoeste 0 -- -- 38
2019-07-25 14:00:00 32.4 11 Oeste 18 Sudoeste 0 -- -- 39
2019-07-25 13:00:00 32.1 9 Sudoeste 18 Sudoeste 0 -- -- 32
2019-07-25 12:00:00 31.1 8 Sur 17 Sudeste 0 -- -- 35
2019-07-25 11:00:00 29.5 5 Sur 19 Sur 0 -- -- 37
2019-07-25 10:00:00 27.3 6 Nordeste 13 Este 0 -- -- 39
2019-07-25 09:00:00 24 2 Sudeste 18 Este 0 -- -- 43
2019-07-25 08:00:00 24.1 14 Este 21 Este 0 -- -- 44
2019-07-25 07:00:00 24.6 9 Este 21 Este 0 -- -- 42
2019-07-25 06:00:00 23.9 10 Este 17 Este 0 -- -- 44
2019-07-25 05:00:00 23.6 6 Sudeste 17 Este 0 -- -- 45
2019-07-25 04:00:00 23.6 4 Sudeste 11 Nordeste 0 -- -- 45
2019-07-25 03:00:00 24.5 3 Este 19 Este 0 -- -- 45
2019-07-25 02:00:00 24.4 4 Sur 15 Nordeste 0 -- -- 43
2019-07-25 01:00:00 25.5 9 Nordeste 18 Este 0 -- -- 41
2019-07-25 00:00:00 25.5 4 Este 21 Este 0 -- -- 41
2019-07-24 23:00:00 26.3 9 Este 24 Sudeste 0 -- -- 40
2019-07-24 22:00:00 26.8 9 Este 22 Este 0 -- -- 39
2019-07-24 21:00:00 29.7 6 Este 17 Este 0 -- -- 34
2019-07-24 20:00:00 32.1 9 Sudeste 22 Sur 0 -- -- 34
2019-07-24 19:00:00 33.3 8 Sudeste 20 Este 0 -- -- 35
2019-07-24 18:00:00 33.6 10 Este 25 Este 0 -- -- 34
2019-07-24 17:00:00 33.3 8 Sudeste 28 Este 0 -- -- 36
2019-07-24 16:00:00 32.7 9 Sur 25 Sur 0 -- -- 36
2019-07-24 15:00:00 31.8 12 Sudeste 28 Sur 0 -- -- 38
2019-07-24 14:00:00 30.9 14 Sur 28 Sur 0 -- -- 41
2019-07-24 13:00:00 30.6 11 Sudeste 27 Este 0 -- -- 40
2019-07-24 12:00:00 29.7 9 Sudeste 26 Sudeste 0 -- -- 40
2019-07-24 11:00:00 28.8 8 Sudeste 26 Sudeste 0 -- -- 39
2019-07-24 10:00:00 27 8 Sudeste 22 Este 0 -- -- 37
2019-07-24 09:00:00 24.4 7 Este 17 Este 0 -- -- 37
2019-07-24 08:00:00 20.8 0 Calma 4 Este 0 -- -- 48
2019-07-24 07:00:00 20.6 0 Calma 4 Este 0 -- -- 50
2019-07-24 06:00:00 21.3 0 Calma 4 Nordeste 0 -- -- 54
2019-07-24 05:00:00 22 0 Calma 4 Sur 0 -- -- 53
2019-07-24 04:00:00 22.9 0 Calma 6 Este 0 -- -- 49
2019-07-24 03:00:00 25.3 2 Oeste 10 Este 0 -- -- 42
2019-07-24 02:00:00 26.2 5 Este 23 Este 0 -- -- 40
2019-07-24 01:00:00 25.8 11 Este 22 Este 0 -- -- 40
2019-07-24 00:00:00 25 5 Este 17 Nordeste 0 -- -- 42
2019-07-23 23:00:00 24.2 0 Calma 4 Este 0 -- -- 64
2019-07-23 22:00:00 25.9 0 Calma 9 Sur 0 -- -- 59
2019-07-23 21:00:00 29 5 Oeste 10 Oeste 0 -- -- 51
2019-07-23 20:00:00 32.5 8 Sudoeste 13 Sur 0 -- -- 39
2019-07-23 19:00:00 32.9 9 Sudeste 19 Sudoeste 0 -- -- 39
2019-07-23 18:00:00 32.4 12 Sudeste 27 Sur 0 -- -- 39
2019-07-23 17:00:00 32.4 12 Sur 32 Sudeste 0 -- -- 38
2019-07-23 16:00:00 31.6 10 Sur 31 Sudoeste 0 -- -- 41
2019-07-23 15:00:00 30.7 12 Sur 28 Sur 0 -- -- 42
2019-07-23 14:00:00 30.2 14 Sur 32 Sur 0 -- -- 43
2019-07-23 13:00:00 29.3 12 Sur 26 Sur 0 -- -- 44
2019-07-23 12:00:00 28.2 12 Sudeste 24 Este 0 -- -- 46
2019-07-23 11:00:00 26.8 11 Sudeste 24 Sur 0 -- -- 49
2019-07-23 10:00:00 24.9 11 Sudeste 23 Sudeste 0 -- -- 56
2019-07-23 09:00:00 22.8 8 Este 18 Sudeste 0 -- -- 63
2019-07-23 08:00:00 22.4 12 Nordeste 28 Este 0 -- -- 63
2019-07-23 07:00:00 22.5 6 Este 21 Este 0 -- -- 59
2019-07-23 06:00:00 21.6 2 Sudoeste 18 Sur 0 -- -- 68
2019-07-23 05:00:00 23.5 4 Sudoeste 27 Este 0 -- -- 54
2019-07-23 04:00:00 23.9 13 Este 29 Sudeste 0 -- -- 47
2019-07-23 03:00:00 23.2 8 Este 18 Sur 0 -- -- 59
2019-07-23 02:00:00 22.1 4 Oeste 10 Oeste 0 -- -- 72
2019-07-23 01:00:00 21.9 7 Oeste 13 Oeste 0 -- -- 76
2019-07-23 00:00:00 22 4 Sur 24 Sudeste 0 -- -- 78
2019-07-22 23:00:00 22.2 13 Sudeste 28 Este 0 -- -- 79
2019-07-22 22:00:00 22.9 12 Este 25 Este 0 -- -- 74
2019-07-22 21:00:00 25.8 9 Este 22 Este 0 -- -- 63
2019-07-22 20:00:00 28.8 7 Este 25 Sudeste 0 -- -- 54
2019-07-22 19:00:00 29.3 10 Sudeste 26 Sudeste 0 -- -- 52
2019-07-22 18:00:00 30.1 12 Sur 28 Sudoeste 0 -- -- 52
2019-07-22 17:00:00 30.4 15 Sur 29 Sudoeste 0 -- -- 52
2019-07-22 16:00:00 30.6 15 Sur 29 Sur 0 -- -- 51
2019-07-22 15:00:00 30.2 14 Sur 30 Sur 0 -- -- 51
2019-07-22 14:00:00 29.3 11 Sur 27 Sur 0 -- -- 53
2019-07-22 13:00:00 27.3 14 Sur 29 Sur 0 -- -- 63
2019-07-22 12:00:00 26 13 Sur 27 Sur 0 -- -- 65
2019-07-22 11:00:00 24.1 12 Sur 27 Sur 0 -- -- 72
2019-07-22 10:00:00 23.1 10 Sur 20 Sudeste 0 -- -- 78
2019-07-22 09:00:00 20.6 5 Oeste 12 Sudoeste 0 -- -- 86
2019-07-22 08:00:00 20.1 3 Sudoeste 8 Sur 0 -- -- 86
2019-07-22 07:00:00 20.3 2 Nordeste 6 Este 0 -- -- 88
2019-07-22 06:00:00 20.1 2 Noroeste 6 Nordeste 0 -- -- 84
2019-07-22 05:00:00 20.4 0 Calma 6 Noroeste 0 -- -- 83
2019-07-22 04:00:00 20.8 0 Calma 7 Sur 0 -- -- 81
2019-07-22 03:00:00 21.3 2 Oeste 8 Sudoeste 0 -- -- 79
2019-07-22 02:00:00 21.5 0 Calma 9 Oeste 0 -- -- 78
2019-07-22 01:00:00 21.7 4 Sudeste 17 Este 0 -- -- 79
2019-07-22 00:00:00 22 8 Este 26 Este 0 -- -- 76
2019-07-21 23:00:00 22.9 13 Este 21 Este 0 -- -- 71
2019-07-21 22:00:00 24.5 4 Sudoeste 12 Oeste 0 -- -- 68
2019-07-21 21:00:00 26.7 5 Oeste 12 Sudoeste 0 -- -- 63
2019-07-21 20:00:00 30.5 6 Sudoeste 12 Sudoeste 0 -- -- 54
2019-07-21 19:00:00 32.1 8 Oeste 15 Sudoeste 0 -- -- 52
2019-07-21 18:00:00 32.4 9 Sudoeste 19 Sudoeste 0 -- -- 51
2019-07-21 17:00:00 32.5 12 Sudoeste 21 Sudoeste 0 -- -- 51
2019-07-21 16:00:00 33 9 Sudoeste 20 Sur 0 -- -- 51
2019-07-21 15:00:00 32.1 12 Sudoeste 18 Oeste 0 -- -- 51
2019-07-21 14:00:00 31.7 9 Sudoeste 15 Sur 0 -- -- 48
2019-07-21 13:00:00 30.3 7 Sudoeste 16 Sudoeste 0 -- -- 49
2019-07-21 12:00:00 29.2 6 Sudoeste 13 Sur 0 -- -- 49
2019-07-21 11:00:00 28.1 5 Sur 10 Sur 0 -- -- 50
2019-07-21 10:00:00 25.6 5 Sur 8 Sudoeste 0 -- -- 56
2019-07-21 09:00:00 23.3 0 Calma 8 Nordeste 0 -- -- 60
2019-07-21 08:00:00 22.7 3 Nordeste 7 Nordeste 0 -- -- 57
2019-07-21 07:00:00 22.3 2 Sudeste 5 Sudeste 0 -- -- 60
2019-07-21 06:00:00 21.6 0 Calma 4 Este 0 -- -- 67
2019-07-21 05:00:00 21.1 0 Calma 4 Este 0 -- -- 71
2019-07-21 04:00:00 21.2 0 Calma 5 Noroeste 0 -- -- 72
2019-07-21 03:00:00 21.6 0 Calma 4 Noroeste 0 -- -- 70
2019-07-21 02:00:00 22 0 Calma 2 Oeste 0 -- -- 69
2019-07-21 01:00:00 22.6 0 Calma 4 Noroeste 0 -- -- 66
2019-07-21 00:00:00 23.2 3 Noroeste 6 Oeste 0 -- -- 66